createdAt,value
2019-05-30T00:02:04.428Z,13.60
2019-05-30T00:04:34.147Z,13.60
2019-05-30T00:07:04.574Z,13.60
2019-05-30T00:09:34.759Z,13.60
2019-05-30T00:12:05.108Z,13.50
2019-05-30T00:14:34.631Z,13.50
2019-05-30T00:17:05.120Z,13.60
2019-05-30T00:19:34.836Z,13.50
2019-05-30T00:22:05.576Z,13.60
2019-05-30T00:24:35.396Z,13.60
2019-05-30T00:27:04.642Z,13.50
2019-05-30T00:29:34.213Z,13.50
2019-05-30T00:32:04.388Z,13.60
2019-05-30T00:34:34.170Z,13.50
2019-05-30T00:37:04.066Z,13.50
2019-05-30T00:39:33.460Z,13.60
2019-05-30T00:42:04.111Z,13.60
2019-05-30T00:44:33.590Z,13.60
2019-05-30T00:47:04.049Z,13.60
2019-05-30T00:49:34.023Z,13.70
2019-05-30T00:52:05.065Z,13.60
2019-05-30T00:54:34.596Z,13.60
2019-05-30T00:57:04.914Z,13.60
2019-05-30T00:59:37.375Z,13.70
2019-05-30T01:02:07.092Z,13.60
2019-05-30T01:04:36.482Z,13.60
2019-05-30T01:07:07.088Z,13.60
2019-05-30T01:09:36.890Z,13.60
2019-05-30T01:12:07.422Z,13.50
2019-05-30T01:14:37.247Z,13.50
2019-05-30T01:17:07.410Z,13.40
2019-05-30T01:19:37.366Z,13.30
2019-05-30T01:22:07.612Z,13.30
2019-05-30T01:24:37.143Z,13.30
2019-05-30T01:27:07.594Z,13.20
2019-05-30T01:29:37.462Z,13.20
2019-05-30T01:32:24.195Z,13.20
2019-05-30T01:34:53.468Z,13.20
2019-05-30T01:37:23.285Z,13.20
2019-05-30T01:39:52.879Z,13.30
2019-05-30T01:42:22.908Z,13.30
2019-05-30T01:44:52.216Z,13.40
2019-05-30T01:47:23.148Z,13.40
2019-05-30T01:49:52.512Z,13.40
2019-05-30T01:52:21.811Z,13.40
2019-05-30T01:54:51.590Z,13.40
2019-05-30T01:57:20.864Z,13.40
2019-05-30T01:59:50.131Z,13.50
2019-05-30T02:02:19.431Z,13.40
2019-05-30T02:04:49.076Z,13.40
2019-05-30T02:07:18.999Z,13.40
2019-05-30T02:09:48.273Z,13.50
2019-05-30T02:12:17.584Z,13.40
2019-05-30T02:14:46.874Z,13.40
2019-05-30T02:17:16.277Z,13.40
2019-05-30T02:19:45.658Z,13.40
2019-05-30T02:22:15.291Z,13.30
2019-05-30T02:24:44.856Z,13.40
2019-05-30T02:27:14.384Z,13.30
2019-05-30T02:29:44.447Z,13.40
2019-05-30T02:32:14.187Z,13.40
2019-05-30T02:34:43.452Z,13.40
2019-05-30T02:37:12.977Z,13.40
2019-05-30T02:39:42.694Z,13.40
2019-05-30T02:42:12.239Z,13.40
2019-05-30T02:44:41.527Z,13.40
2019-05-30T02:47:11.545Z,13.50
2019-05-30T02:49:41.542Z,13.50
2019-05-30T02:52:12.967Z,13.50
2019-05-30T02:54:41.968Z,13.50
2019-05-30T02:57:12.562Z,13.50
2019-05-30T02:59:42.069Z,13.60
2019-05-30T03:02:16.379Z,13.60
2019-05-30T03:04:42.782Z,13.60
2019-05-30T03:07:13.072Z,13.70
2019-05-30T03:09:43.036Z,13.70
2019-05-30T03:12:13.422Z,13.70
2019-05-30T03:14:43.215Z,13.70
2019-05-30T03:17:14.635Z,13.80
2019-05-30T03:19:43.984Z,13.80
2019-05-30T03:22:14.151Z,13.80
2019-05-30T03:24:43.480Z,13.80
2019-05-30T03:27:14.141Z,13.90
2019-05-30T03:29:43.830Z,13.90
2019-05-30T03:32:49.051Z,13.90
2019-05-30T03:34:44.516Z,13.90
2019-05-30T03:37:26.014Z,13.90
2019-05-30T03:39:45.601Z,13.90
2019-05-30T03:42:18.680Z,13.90
2019-05-30T03:44:48.008Z,13.90
2019-05-30T03:47:20.374Z,13.90
2019-05-30T03:49:51.327Z,13.90
2019-05-30T03:52:24.698Z,14.00
2019-05-30T03:54:54.633Z,14.00
2019-05-30T03:57:28.523Z,14.00
2019-05-30T04:00:11.126Z,14.00
2019-05-30T04:02:58.435Z,14.00
2019-05-30T04:05:32.393Z,14.10
2019-05-30T04:08:04.713Z,14.10
2019-05-30T04:10:37.955Z,14.20
2019-05-30T04:13:19.405Z,14.20
2019-05-30T04:15:49.113Z,14.20
2019-05-30T04:18:19.590Z,14.20
2019-05-30T04:20:49.604Z,14.20
2019-05-30T04:23:19.630Z,14.30
2019-05-30T04:25:49.267Z,14.30
2019-05-30T04:28:18.858Z,14.30
2019-05-30T04:30:48.390Z,14.30
2019-05-30T04:33:31.631Z,14.30
2019-05-30T04:35:48.684Z,14.30
2019-05-30T04:38:19.547Z,14.20
2019-05-30T04:40:49.371Z,14.30
2019-05-30T04:43:20.255Z,14.40
2019-05-30T04:45:50.234Z,14.40
2019-05-30T04:48:21.348Z,14.40
2019-05-30T04:50:50.599Z,14.50
2019-05-30T04:53:20.896Z,14.50
2019-05-30T04:55:50.470Z,14.60
2019-05-30T04:58:23.313Z,14.60
2019-05-30T05:00:51.488Z,14.60
2019-05-30T05:03:42.921Z,14.60
2019-05-30T05:05:51.794Z,14.70
2019-05-30T05:08:22.135Z,14.70
2019-05-30T05:10:51.536Z,14.70
2019-05-30T05:13:22.571Z,14.70
2019-05-30T05:15:52.101Z,14.70
2019-05-30T05:18:21.368Z,14.60
2019-05-30T05:20:50.991Z,14.70
2019-05-30T05:23:21.359Z,14.80
2019-05-30T05:26:00.414Z,14.80
2019-05-30T05:28:24.133Z,14.90
2019-05-30T05:30:53.416Z,14.90
2019-05-30T05:33:22.740Z,15.00
2019-05-30T05:35:52.720Z,15.00
2019-05-30T05:38:25.238Z,15.10
2019-05-30T05:40:57.850Z,15.20
2019-05-30T05:43:27.141Z,15.20
2019-05-30T05:45:57.005Z,15.20
2019-05-30T05:48:26.702Z,15.20
2019-05-30T05:50:55.972Z,15.40
2019-05-30T05:53:25.406Z,15.30
2019-05-30T05:55:54.723Z,15.30
2019-05-30T05:58:26.161Z,15.40
2019-05-30T06:00:55.192Z,15.50
2019-05-30T06:03:24.542Z,15.50
2019-05-30T06:05:54.866Z,15.60
2019-05-30T06:08:24.206Z,15.70
2019-05-30T06:10:53.591Z,15.70
2019-05-30T06:13:23.034Z,15.80
2019-05-30T06:15:52.332Z,15.90
2019-05-30T06:18:22.262Z,15.90
2019-05-30T06:20:51.679Z,16.00
2019-05-30T06:23:21.556Z,16.00
2019-05-30T06:25:51.215Z,16.00
2019-05-30T06:28:21.972Z,16.10
2019-05-30T06:30:51.374Z,16.10
2019-05-30T06:33:21.050Z,16.10
2019-05-30T06:35:50.637Z,16.10
2019-05-30T06:38:20.995Z,16.10
2019-05-30T06:40:50.639Z,16.10
2019-05-30T06:43:20.316Z,16.10
2019-05-30T06:45:49.605Z,16.20
2019-05-30T06:48:20.492Z,16.20
2019-05-30T06:50:50.989Z,16.20
2019-05-30T06:53:21.011Z,16.20
2019-05-30T06:55:50.740Z,16.30
2019-05-30T06:58:38.279Z,16.20
2019-05-30T07:00:51.219Z,16.30
2019-05-30T07:03:20.588Z,16.30
2019-05-30T07:05:50.561Z,16.30
2019-05-30T07:08:20.072Z,16.30
2019-05-30T07:10:49.650Z,16.40
2019-05-30T07:13:18.940Z,16.40
2019-05-30T07:15:48.572Z,16.50
2019-05-30T07:18:18.370Z,16.50
2019-05-30T07:20:48.019Z,16.60
2019-05-30T07:23:17.411Z,16.60
2019-05-30T07:25:46.764Z,16.70
2019-05-30T07:28:18.536Z,16.80
2019-05-30T07:30:47.883Z,16.90
2019-05-30T07:33:17.456Z,16.90
2019-05-30T07:35:47.036Z,17.00
2019-05-30T07:38:16.667Z,16.90
2019-05-30T07:40:46.231Z,16.90
2019-05-30T07:43:15.776Z,17.00
2019-05-30T07:45:56.323Z,16.90
2019-05-30T07:48:16.999Z,17.00
2019-05-30T07:50:46.676Z,17.00
2019-05-30T07:53:16.200Z,16.90
2019-05-30T07:55:46.487Z,16.90
2019-05-30T07:58:15.790Z,16.90
2019-05-30T08:00:45.216Z,17.00
2019-05-30T08:03:14.530Z,17.00
2019-05-30T08:05:44.212Z,17.00
2019-05-30T08:08:13.880Z,17.00
2019-05-30T08:10:43.405Z,17.10
2019-05-30T08:13:12.705Z,17.10
2019-05-30T08:15:43.952Z,17.20
2019-05-30T08:18:13.210Z,17.20
2019-05-30T08:20:42.823Z,17.20
2019-05-30T08:23:12.100Z,17.20
2019-05-30T08:25:41.398Z,17.30
2019-05-30T08:28:11.279Z,17.30
2019-05-30T08:30:40.535Z,17.40
2019-05-30T08:33:10.095Z,17.40
2019-05-30T08:35:49.205Z,17.50
2019-05-30T08:38:10.744Z,17.60
2019-05-30T08:40:40.433Z,17.70
2019-05-30T08:43:09.961Z,17.90
2019-05-30T08:45:39.987Z,18.00
2019-05-30T08:48:09.443Z,18.20
2019-05-30T08:50:42.547Z,18.30
2019-05-30T08:53:10.121Z,18.30
2019-05-30T08:55:40.568Z,18.40
2019-05-30T08:58:09.980Z,18.50
2019-05-30T09:00:39.351Z,18.60
2019-05-30T09:03:08.644Z,18.80
2019-05-30T09:05:38.741Z,19.00
2019-05-30T09:08:09.287Z,19.10
2019-05-30T09:10:40.854Z,19.30
2019-05-30T09:13:10.239Z,19.40
2019-05-30T09:15:40.935Z,19.50
2019-05-30T09:18:10.428Z,19.60
2019-05-30T09:20:41.734Z,19.70
2019-05-30T09:23:11.231Z,19.90
2019-05-30T09:25:41.524Z,20.00
2019-05-30T09:28:11.047Z,20.10
2019-05-30T09:30:41.556Z,20.20
2019-05-30T09:33:11.853Z,20.40
2019-05-30T09:35:41.455Z,20.50
2019-05-30T09:38:11.336Z,20.50
2019-05-30T09:40:42.005Z,20.50
2019-05-30T09:43:11.656Z,20.50
2019-05-30T09:45:42.308Z,20.60
2019-05-30T09:48:14.392Z,20.50
2019-05-30T09:50:45.208Z,20.50
2019-05-30T09:53:14.840Z,20.50
2019-05-30T09:55:44.567Z,20.70
2019-05-30T09:58:14.271Z,20.70
2019-05-30T10:00:45.459Z,20.70
2019-05-30T10:03:14.812Z,20.80
2019-05-30T10:05:45.103Z,20.80
2019-05-30T10:08:15.780Z,20.90
2019-05-30T10:10:45.690Z,20.80
2019-05-30T10:13:15.604Z,20.60
2019-05-30T10:15:48.476Z,20.50
2019-05-30T10:18:17.922Z,20.50
2019-05-30T10:20:48.173Z,20.30
2019-05-30T10:23:18.496Z,20.20
2019-05-30T10:25:49.412Z,20.00
2019-05-30T10:28:19.981Z,19.90
2019-05-30T10:30:53.546Z,19.80
2019-05-30T10:33:20.828Z,19.60
2019-05-30T10:35:51.743Z,19.60
2019-05-30T10:38:22.917Z,19.70
2019-05-30T10:40:52.423Z,19.70
2019-05-30T10:43:21.754Z,19.80
2019-05-30T10:45:53.375Z,19.80
2019-05-30T10:48:23.192Z,19.90
2019-05-30T10:50:52.779Z,20.00
2019-05-30T10:53:22.144Z,20.10
2019-05-30T10:55:53.043Z,20.30
2019-05-30T10:58:25.660Z,20.40
2019-05-30T11:00:57.833Z,20.50
2019-05-30T11:03:28.451Z,20.60
2019-05-30T11:06:26.362Z,20.60
2019-05-30T11:08:58.893Z,20.60
2019-05-30T11:11:28.521Z,20.50
2019-05-30T11:13:57.863Z,20.50
2019-05-30T11:16:27.236Z,20.60
2019-05-30T11:18:58.727Z,20.50
2019-05-30T11:21:29.388Z,20.70
2019-05-30T11:23:58.679Z,20.70
2019-05-30T11:26:28.272Z,20.80
2019-05-30T11:28:58.836Z,20.80
2019-05-30T11:31:30.591Z,20.90
2019-05-30T11:34:03.831Z,20.70
2019-05-30T11:36:34.555Z,20.60
2019-05-30T11:39:04.359Z,20.70
2019-05-30T11:41:33.921Z,20.60
2019-05-30T11:44:04.308Z,20.40
2019-05-30T11:46:34.138Z,20.30
2019-05-30T11:49:03.400Z,20.30
2019-05-30T11:51:32.821Z,20.30
2019-05-30T11:54:04.492Z,20.30
2019-05-30T11:56:34.540Z,20.20
2019-05-30T11:59:03.843Z,20.20
2019-05-30T12:01:33.510Z,20.20
2019-05-30T12:04:03.188Z,20.20
2019-05-30T12:06:32.784Z,20.20
2019-05-30T12:09:02.135Z,20.20
2019-05-30T12:11:31.859Z,20.10
2019-05-30T12:14:01.522Z,20.00
2019-05-30T12:16:31.031Z,20.00
2019-05-30T12:19:01.781Z,20.00
2019-05-30T12:21:31.325Z,20.10
2019-05-30T12:24:02.418Z,20.20
2019-05-30T12:26:33.905Z,20.20
2019-05-30T12:29:02.967Z,20.20
2019-05-30T12:31:32.537Z,20.20
2019-05-30T12:34:02.740Z,20.10
2019-05-30T12:36:32.364Z,20.00
2019-05-30T12:39:02.705Z,19.90
2019-05-30T12:41:32.091Z,19.90
2019-05-30T12:44:01.755Z,19.70
2019-05-30T12:46:31.101Z,19.70
2019-05-30T12:49:01.600Z,19.60
2019-05-30T12:51:31.492Z,19.60
2019-05-30T12:54:00.779Z,19.60
2019-05-30T12:56:30.364Z,19.60
2019-05-30T12:59:01.141Z,19.60
2019-05-30T13:01:30.586Z,19.50
2019-05-30T13:04:01.108Z,19.40
2019-05-30T13:06:30.591Z,19.40
2019-05-30T13:09:01.085Z,19.30
2019-05-30T13:11:30.920Z,19.30
2019-05-30T13:14:00.658Z,19.30
2019-05-30T13:16:30.035Z,19.30
2019-05-30T13:18:59.995Z,19.30
2019-05-30T13:21:29.766Z,19.30
2019-05-30T13:23:59.593Z,19.30
2019-05-30T13:26:28.977Z,19.30
2019-05-30T13:28:58.437Z,19.20
2019-05-30T13:31:27.711Z,19.20
2019-05-30T13:33:57.010Z,19.20
2019-05-30T13:36:26.552Z,19.20
2019-05-30T13:38:57.097Z,19.10
2019-05-30T13:41:26.642Z,19.10
2019-05-30T13:43:56.176Z,19.00
2019-05-30T13:46:25.472Z,19.00
2019-05-30T13:48:54.820Z,18.80
2019-05-30T13:51:24.315Z,18.70
2019-05-30T13:53:53.660Z,18.70
2019-05-30T13:56:25.188Z,18.60
2019-05-30T13:58:54.804Z,18.50
2019-05-30T14:01:24.198Z,18.50
2019-05-30T14:03:53.829Z,18.50
2019-05-30T14:06:23.136Z,18.50
2019-05-30T14:08:52.479Z,18.50
2019-05-30T14:11:21.843Z,18.40
2019-05-30T14:13:51.334Z,18.50
2019-05-30T14:16:20.872Z,18.50
2019-05-30T14:18:50.808Z,18.60
2019-05-30T14:21:20.378Z,18.60
2019-05-30T14:23:51.365Z,18.60
2019-05-30T14:26:20.958Z,18.70
2019-05-30T14:28:50.337Z,18.70
2019-05-30T14:31:20.646Z,18.80
2019-05-30T14:33:50.260Z,18.80
2019-05-30T14:36:19.863Z,18.80
2019-05-30T14:38:58.435Z,18.90
2019-05-30T14:41:20.305Z,19.00
2019-05-30T14:43:49.835Z,19.00
2019-05-30T14:46:19.407Z,19.10
2019-05-30T14:48:48.964Z,19.10
2019-05-30T14:51:18.782Z,19.10
2019-05-30T14:53:48.078Z,19.10
2019-05-30T14:56:17.725Z,19.10
2019-05-30T14:58:47.027Z,19.20
2019-05-30T15:01:17.426Z,19.20
2019-05-30T15:03:47.252Z,19.20
2019-05-30T15:06:17.908Z,19.10
2019-05-30T15:08:47.888Z,19.10
2019-05-30T15:11:17.496Z,19.10
2019-05-30T15:13:47.544Z,19.00
2019-05-30T15:16:17.329Z,19.10
2019-05-30T15:18:46.763Z,19.10
2019-05-30T15:21:16.601Z,19.20
2019-05-30T15:23:46.486Z,19.40
2019-05-30T15:26:16.286Z,19.60
2019-05-30T15:28:46.502Z,19.70
2019-05-30T15:31:16.633Z,19.90
2019-05-30T15:33:46.362Z,20.00
2019-05-30T15:36:16.821Z,20.20
2019-05-30T15:38:49.002Z,20.30
2019-05-30T15:41:18.379Z,20.20
2019-05-30T15:43:47.994Z,20.30
2019-05-30T15:46:18.064Z,20.40
2019-05-30T15:48:48.043Z,20.50
2019-05-30T15:51:18.700Z,20.60
2019-05-30T15:53:51.299Z,20.80
2019-05-30T15:56:20.622Z,21.10
2019-05-30T15:58:49.878Z,21.10
2019-05-30T16:01:20.176Z,21.20
2019-05-30T16:03:50.168Z,21.30
2019-05-30T16:06:20.800Z,21.30
2019-05-30T16:08:50.597Z,21.20
2019-05-30T16:11:21.147Z,21.30
2019-05-30T16:13:50.882Z,21.30
2019-05-30T16:16:36.126Z,21.20
2019-05-30T16:18:51.923Z,21.10
2019-05-30T16:21:22.441Z,20.90
2019-05-30T16:23:52.125Z,20.80
2019-05-30T16:26:21.974Z,20.80
2019-05-30T16:28:51.463Z,20.70
2019-05-30T16:31:22.390Z,20.60
2019-05-30T16:33:52.122Z,20.60
2019-05-30T16:36:22.512Z,20.50
2019-05-30T16:38:52.915Z,20.50
2019-05-30T16:41:22.692Z,20.40
2019-05-30T16:43:52.069Z,20.30
2019-05-30T16:46:22.558Z,20.30
2019-05-30T16:48:52.313Z,20.30
2019-05-30T16:51:23.502Z,20.20
2019-05-30T16:53:52.647Z,20.20
2019-05-30T16:56:23.609Z,20.20
2019-05-30T16:58:53.100Z,20.10
2019-05-30T17:01:23.986Z,20.10
2019-05-30T17:03:56.959Z,20.10
2019-05-30T17:06:26.320Z,20.10
2019-05-30T17:08:55.604Z,20.10
2019-05-30T17:11:27.225Z,20.20
2019-05-30T17:13:56.777Z,20.20
2019-05-30T17:16:26.328Z,20.20
2019-05-30T17:18:55.667Z,20.30
2019-05-30T17:21:26.751Z,20.30
2019-05-30T17:23:56.393Z,20.30
2019-05-30T17:26:27.323Z,20.30
2019-05-30T17:28:56.726Z,20.20
2019-05-30T17:31:26.377Z,20.20
2019-05-30T17:33:55.723Z,20.10
2019-05-30T17:36:26.250Z,20.10
2019-05-30T17:38:55.659Z,20.10
2019-05-30T17:41:25.247Z,20.00
2019-05-30T17:43:54.972Z,20.10
2019-05-30T17:46:25.624Z,20.10
2019-05-30T17:48:55.348Z,20.10
2019-05-30T17:51:25.799Z,20.20
2019-05-30T17:53:55.431Z,20.20
2019-05-30T17:56:26.172Z,20.20
2019-05-30T17:58:56.257Z,20.30
2019-05-30T18:01:26.305Z,20.30
2019-05-30T18:03:56.503Z,20.30
2019-05-30T18:06:26.569Z,20.30
2019-05-30T18:08:56.135Z,20.30
2019-05-30T18:11:25.471Z,20.30
2019-05-30T18:13:55.205Z,20.30
2019-05-30T18:16:25.162Z,20.30
2019-05-30T18:18:54.583Z,20.30
2019-05-30T18:21:23.884Z,20.30
2019-05-30T18:23:53.756Z,20.40
2019-05-30T18:26:23.513Z,20.40
2019-05-30T18:28:52.833Z,20.40
2019-05-30T18:31:22.208Z,20.40
2019-05-30T18:33:51.610Z,20.50
2019-05-30T18:36:22.194Z,20.50
2019-05-30T18:38:52.145Z,20.40
2019-05-30T18:41:22.658Z,20.40
2019-05-30T18:43:52.095Z,20.50
2019-05-30T18:46:21.368Z,20.50
2019-05-30T18:48:50.660Z,20.40
2019-05-30T18:51:20.235Z,20.40
2019-05-30T18:53:49.494Z,20.30
2019-05-30T18:56:18.800Z,20.20
2019-05-30T18:58:48.442Z,20.20
2019-05-30T19:01:17.792Z,20.10
2019-05-30T19:03:47.392Z,20.10
2019-05-30T19:06:16.665Z,20.00
2019-05-30T19:08:46.016Z,19.90
2019-05-30T19:11:27.316Z,19.90
2019-05-30T19:13:46.380Z,19.80
2019-05-30T19:16:15.918Z,19.80
2019-05-30T19:18:45.318Z,19.70
2019-05-30T19:21:14.598Z,19.70
2019-05-30T19:23:44.145Z,19.70
2019-05-30T19:26:13.450Z,19.60
2019-05-30T19:28:43.311Z,19.60
2019-05-30T19:31:12.610Z,19.60
2019-05-30T19:33:42.693Z,19.60
2019-05-30T19:36:12.403Z,19.60
2019-05-30T19:38:41.973Z,19.60
2019-05-30T19:41:11.836Z,19.50
2019-05-30T19:43:41.132Z,19.60
2019-05-30T19:46:13.225Z,19.50
2019-05-30T19:48:42.127Z,19.50
2019-05-30T19:51:11.457Z,19.50
2019-05-30T19:53:40.804Z,19.40
2019-05-30T19:56:10.141Z,19.40
2019-05-30T19:58:39.913Z,19.40
2019-05-30T20:01:09.691Z,19.40
2019-05-30T20:03:45.170Z,19.30
2019-05-30T20:06:10.235Z,19.30
2019-05-30T20:08:52.566Z,19.20
2019-05-30T20:11:10.895Z,19.20
2019-05-30T20:13:41.277Z,19.20
2019-05-30T20:16:10.604Z,19.20
2019-05-30T20:18:41.728Z,19.10
2019-05-30T20:21:11.755Z,19.10
2019-05-30T20:23:53.800Z,19.00
2019-05-30T20:26:12.513Z,19.00
2019-05-30T20:28:42.963Z,18.90
2019-05-30T20:31:12.267Z,18.80
2019-05-30T20:33:42.648Z,18.80
2019-05-30T20:36:11.988Z,18.70
2019-05-30T20:38:41.313Z,18.60
2019-05-30T20:41:10.867Z,18.60
2019-05-30T20:43:41.029Z,18.50
2019-05-30T20:46:22.911Z,18.50
2019-05-30T20:48:43.618Z,18.40
2019-05-30T20:51:20.689Z,18.30
2019-05-30T20:53:44.439Z,18.30
2019-05-30T20:56:13.774Z,18.30
2019-05-30T20:58:45.772Z,18.30
2019-05-30T21:01:15.494Z,18.20
2019-05-30T21:03:45.899Z,18.10
2019-05-30T21:06:16.272Z,18.10
2019-05-30T21:08:47.523Z,18.00
2019-05-30T21:11:16.942Z,17.90
2019-05-30T21:13:49.821Z,17.90
2019-05-30T21:16:21.475Z,17.80
2019-05-30T21:18:52.947Z,17.70
2019-05-30T21:21:22.543Z,17.70
2019-05-30T21:23:51.905Z,17.60
2019-05-30T21:26:21.175Z,17.50
2019-05-30T21:28:50.494Z,17.50
2019-05-30T21:31:20.099Z,17.50
2019-05-30T21:33:51.201Z,17.50
2019-05-30T21:36:20.764Z,17.50
2019-05-30T21:38:50.096Z,17.40
2019-05-30T21:41:19.379Z,17.30
2019-05-30T21:43:49.060Z,17.30
2019-05-30T21:46:18.359Z,17.20
2019-05-30T21:48:49.032Z,17.10
2019-05-30T21:51:18.729Z,17.00
2019-05-30T21:53:48.019Z,16.90
2019-05-30T21:56:17.638Z,16.90
2019-05-30T21:58:48.322Z,16.80
2019-05-30T22:01:36.620Z,16.80
2019-05-30T22:04:07.073Z,16.70
2019-05-30T22:06:36.975Z,16.70
2019-05-30T22:09:11.495Z,16.70
2019-05-30T22:11:41.661Z,16.60
2019-05-30T22:14:11.607Z,16.60
2019-05-30T22:16:41.772Z,16.50
2019-05-30T22:19:11.612Z,16.50
2019-05-30T22:21:42.001Z,16.50
2019-05-30T22:24:11.707Z,16.50
2019-05-30T22:26:42.453Z,16.50
2019-05-30T22:29:12.249Z,16.40
2019-05-30T22:31:42.534Z,16.40
2019-05-30T22:34:11.951Z,16.40
2019-05-30T22:36:42.626Z,16.30
2019-05-30T22:39:12.052Z,16.30
2019-05-30T22:41:41.399Z,16.30
2019-05-30T22:44:10.660Z,16.30
2019-05-30T22:46:40.399Z,16.20
2019-05-30T22:49:09.995Z,16.20
2019-05-30T22:51:39.271Z,16.20
2019-05-30T22:54:08.568Z,16.20
2019-05-30T22:56:38.380Z,16.10
2019-05-30T22:59:08.435Z,16.10
2019-05-30T23:01:38.023Z,16.10
2019-05-30T23:04:07.418Z,16.00
2019-05-30T23:06:36.795Z,16.00
2019-05-30T23:09:07.755Z,16.00
2019-05-30T23:11:37.086Z,15.90
2019-05-30T23:14:07.386Z,15.90
2019-05-30T23:16:36.663Z,15.90
2019-05-30T23:19:08.607Z,15.90
2019-05-30T23:21:37.924Z,15.80
2019-05-30T23:24:07.317Z,15.80
2019-05-30T23:26:37.039Z,15.70
2019-05-30T23:29:06.297Z,15.70
2019-05-30T23:31:35.966Z,15.70
2019-05-30T23:34:05.252Z,15.60
2019-05-30T23:36:34.527Z,15.60
2019-05-30T23:39:04.314Z,15.60
2019-05-30T23:41:33.626Z,15.50
2019-05-30T23:44:10.648Z,15.50
2019-05-30T23:46:34.713Z,15.40
2019-05-30T23:49:04.397Z,15.40
2019-05-30T23:51:34.234Z,15.40
2019-05-30T23:54:03.927Z,15.40
2019-05-30T23:56:33.598Z,15.30
2019-05-30T23:59:05.947Z,15.30
